Time;durP1;ratioP1;P1;durP2;ratioP2;P2;SDS_P1;SDS_P2;PMS_P1;PMS_P2;Temp;Humidity;BMP_temperature;BMP_pressure;BME280_temperature;BME280_humidity;BME280_pressure;Samples;Min_cycle;Max_cycle;Signal;HPM_P1;HPM_P2
2022/05/11 00:01:29;;;;;;;;;;;;;;;;;;4347036;33;20024;-69
2022/05/11 00:03:57;;;;;;;9.95;3.65;;;;;;;;;;4347533;33;20276;-68
2022/05/11 00:06:23;;;;;;;16.42;2.97;;;;;;;;;;4345764;33;20024;-69
2022/05/11 00:08:48;;;;;;;13.55;3.58;;;;;;;;;;4347148;33;20053;-68
2022/05/11 00:11:14;;;;;;;13.57;4.10;;;;;;;;;;4345528;33;20106;-69
2022/05/11 00:13:40;;;;;;;10.23;3.50;;;;;;;;;;4347343;33;20024;-68
2022/05/11 00:16:05;;;;;;;7.20;3.30;;;;;;;;;;4333754;33;20031;-69
2022/05/11 00:18:30;;;;;;;10.02;3.45;;;;;;;;;;4347034;33;20024;-69
2022/05/11 00:20:55;;;;;;;8.98;3.12;;;;;;;;;;4333566;33;20053;-69
2022/05/11 00:23:20;;;;;;;10.27;3.62;;;;;;;;;;4345551;33;20346;-69
2022/05/11 00:25:46;;;;;;;10.88;4.50;;;;;;;;;;4345728;33;20016;-68
2022/05/11 00:28:12;;;;;;;10.52;3.53;;;;;;;;;;4345812;33;20074;-69
2022/05/11 00:30:37;;;;;;;11.23;5.10;;;;;;;;;;4349461;32;20028;-69
2022/05/11 00:33:02;;;;;;;14.85;4.45;;;;;;;;;;4347247;33;20382;-69
2022/05/11 00:35:28;;;;;;;11.40;3.85;;;;;;;;;;4345068;33;20024;-69
2022/05/11 00:37:53;;;;;;;11.65;3.92;;;;;;;;;;4363136;27;20004;-66
2022/05/11 00:40:20;;;;;;;10.48;3.65;;;;;;;;;;4344820;33;20043;-67
2022/05/11 00:42:45;;;;;;;10.90;3.55;;;;;;;;;;4347003;32;20058;-67
2022/05/11 00:45:10;;;;;;;9.90;3.30;;;;;;;;;;4345753;33;20334;-67
2022/05/11 00:47:38;;;;;;;11.63;3.25;;;;;;;;;;4346744;33;20132;-67
2022/05/11 00:50:14;;;;;;;9.95;3.17;;;;;;;;;;4356940;32;20078;-67
2022/05/11 00:52:59;;;;;;;13.25;3.90;;;;;;;;;;4356558;32;20035;-67
2022/05/11 00:55:26;;;;;;;11.23;3.90;;;;;;;;;;4345198;33;20457;-67
2022/05/11 00:57:55;;;;;;;10.30;3.30;;;;;;;;;;4338762;32;20020;-67
2022/05/11 01:00:21;;;;;;;10.10;3.17;;;;;;;;;;4331346;33;20050;-67
2022/05/11 01:02:48;;;;;;;11.82;3.53;;;;;;;;;;4331889;33;20188;-67
2022/05/11 01:05:14;;;;;;;13.10;3.08;;;;;;;;;;4331866;33;20145;-67
2022/05/11 01:07:39;;;;;;;9.05;3.05;;;;;;;;;;4356390;32;20039;-67
2022/05/11 01:10:05;;;;;;;7.07;3.20;;;;;;;;;;4345454;33;20024;-67
2022/05/11 01:12:33;;;;;;;13.40;3.50;;;;;;;;;;4357142;32;20028;-67
2022/05/11 01:15:00;;;;;;;10.45;3.47;;;;;;;;;;4344414;33;20062;-67
2022/05/11 01:17:26;;;;;;;14.87;4.57;;;;;;;;;;4349871;32;20079;-67
2022/05/11 01:19:52;;;;;;;17.87;6.45;;;;;;;;;;4342062;33;20373;-68
2022/05/11 01:22:30;;;;;;;15.32;5.95;;;;;;;;;;4346815;33;20389;-67
2022/05/11 01:24:56;;;;;;;16.83;5.32;;;;;;;;;;4344972;33;20046;-67
2022/05/11 01:27:30;;;;;;;13.45;4.85;;;;;;;;;;4342130;32;20020;-67
2022/05/11 01:29:57;;;;;;;14.20;4.43;;;;;;;;;;4330060;33;20058;-67
2022/05/11 01:32:23;;;;;;;15.73;4.47;;;;;;;;;;4334319;33;20031;-67
2022/05/11 01:34:56;;;;;;;10.52;3.80;;;;;;;;;;4331220;33;20087;-67
2022/05/11 01:37:22;;;;;;;14.75;4.75;;;;;;;;;;4332243;33;20024;-67
2022/05/11 01:39:47;;;;;;;8.88;3.83;;;;;;;;;;4344139;33;20102;-67
2022/05/11 01:42:12;;;;;;;11.95;3.80;;;;;;;;;;4346417;33;20104;-67
2022/05/11 01:44:37;;;;;;;11.40;3.75;;;;;;;;;;4334233;33;20537;-67
2022/05/11 01:47:02;;;;;;;;;;;;;;;;;;4329287;33;20316;-67
2022/05/11 01:49:28;;;;;;;11.32;3.92;;;;;;;;;;4334264;33;19939;-67
2022/05/11 01:51:53;;;;;;;11.35;4.22;;;;;;;;;;4343219;33;20473;-67
2022/05/11 01:54:19;;;;;;;11.77;4.00;;;;;;;;;;4345246;33;20111;-67
2022/05/11 01:56:44;;;;;;;10.05;3.53;;;;;;;;;;4344570;33;20067;-67
2022/05/11 01:59:09;;;;;;;9.45;3.42;;;;;;;;;;4342828;32;20327;-67
2022/05/11 02:01:35;;;;;;;7.97;3.37;;;;;;;;;;4331472;33;20054;-67
2022/05/11 02:04:00;;;;;;;10.38;3.17;;;;;;;;;;4342841;33;20036;-67
2022/05/11 02:09:10;;;;;;;10.25;3.47;;;;;;;;;;4331264;33;20059;-67
2022/05/11 02:11:35;;;;;;;12.27;3.53;;;;;;;;;;4330515;33;20365;-67
2022/05/11 02:14:01;;;;;;;9.52;3.65;;;;;;;;;;4330833;33;20058;-67
2022/05/11 02:16:27;;;;;;;14.48;3.35;;;;;;;;;;4330182;33;20103;-67
2022/05/11 02:18:53;;;;;;;13.62;5.12;;;;;;;;;;4331770;33;20024;-67
2022/05/11 02:21:19;;;;;;;15.13;5.90;;;;;;;;;;4340969;33;20106;-67
2022/05/11 02:23:44;;;;;;;14.65;5.22;;;;;;;;;;4340974;33;20406;-67
2022/05/11 02:26:09;;;;;;;;;;;;;;;;;;4331859;33;20062;-67
2022/05/11 02:28:34;;;;;;;12.00;3.95;;;;;;;;;;4341583;33;19983;-67
2022/05/11 02:31:00;;;;;;;12.90;3.97;;;;;;;;;;4340996;33;20035;-67
2022/05/11 02:33:25;;;;;;;7.10;2.65;;;;;;;;;;4331728;33;20129;-67
2022/05/11 02:35:51;;;;;;;9.43;2.55;;;;;;;;;;4343981;33;20419;-67
2022/05/11 02:38:18;;;;;;;6.25;2.35;;;;;;;;;;4344448;33;20082;-67
2022/05/11 02:40:43;;;;;;;7.18;2.10;;;;;;;;;;4346938;33;20398;-67
2022/05/11 02:43:10;;;;;;;7.95;2.50;;;;;;;;;;4346221;33;20050;-67
2022/05/11 02:45:36;;;;;;;13.57;2.67;;;;;;;;;;4358899;32;20024;-67
2022/05/11 02:48:02;;;;;;;6.20;1.92;;;;;;;;;;4346890;33;20024;-67
2022/05/11 02:50:32;;;;;;;8.10;2.20;;;;;;;;;;4343382;33;20055;-67
2022/05/11 02:52:57;;;;;;;7.85;2.10;;;;;;;;;;4347520;33;20015;-67
2022/05/11 02:55:22;;;;;;;6.05;2.15;;;;;;;;;;4346576;33;20091;-67
2022/05/11 02:57:47;;;;;;;7.68;2.33;;;;;;;;;;4346808;33;20020;-68
2022/05/11 03:00:14;;;;;;;5.97;2.03;;;;;;;;;;4332713;33;20075;-66
2022/05/11 03:02:39;;;;;;;8.00;2.55;;;;;;;;;;4344171;33;20047;-67
2022/05/11 03:05:05;;;;;;;7.40;2.37;;;;;;;;;;4343391;32;20046;-66
2022/05/11 03:07:30;;;;;;;7.65;2.42;;;;;;;;;;4344585;32;20028;-66
2022/05/11 03:09:55;;;;;;;10.43;2.33;;;;;;;;;;4355519;32;20089;-67
2022/05/11 03:12:22;;;;;;;;;;;;;;;;;;4359474;32;20038;-67
2022/05/11 03:14:47;;;;;;;6.90;1.83;;;;;;;;;;4361566;33;19946;-65
2022/05/11 03:17:12;;;;;;;6.55;2.05;;;;;;;;;;4369415;32;20111;-66
2022/05/11 03:19:38;;;;;;;10.85;2.20;;;;;;;;;;4342170;32;20028;-66
2022/05/11 03:22:03;;;;;;;7.18;2.12;;;;;;;;;;4348926;32;20376;-67
2022/05/11 03:24:28;;;;;;;9.82;2.53;;;;;;;;;;4351426;32;20069;-67
2022/05/11 03:26:53;;;;;;;4.93;2.03;;;;;;;;;;4346104;32;20133;-67
2022/05/11 03:29:19;;;;;;;;;;;;;;;;;;4338117;32;20159;-66
2022/05/11 03:34:36;;;;;;;8.75;1.90;;;;;;;;;;4332317;33;20010;-65
2022/05/11 03:34:38;;;;;;;9.05;2.10;;;;;;;;;;4341437;32;20028;-66
2022/05/11 03:37:05;;;;;;;8.20;2.15;;;;;;;;;;4348627;33;20046;-66
2022/05/11 03:39:30;;;;;;;12.60;2.78;;;;;;;;;;4346171;33;20040;-67
2022/05/11 03:41:55;;;;;;;6.85;2.10;;;;;;;;;;4348262;32;20070;-66
2022/05/11 03:44:20;;;;;;;;;;;;;;;;;;4348489;33;20047;-67
2022/05/11 03:46:45;;;;;;;5.95;2.17;;;;;;;;;;4348292;33;19954;-66
2022/05/11 03:49:11;;;;;;;9.10;1.92;;;;;;;;;;4340056;32;20050;-66
2022/05/11 03:51:36;;;;;;;;;;;;;;;;;;4346947;32;20120;-66
2022/05/11 03:54:01;;;;;;;7.95;2.17;;;;;;;;;;4345866;33;19935;-66
2022/05/11 03:56:26;;;;;;;;;;;;;;;;;;4333583;33;20129;-66
2022/05/11 03:58:51;;;;;;;7.35;1.95;;;;;;;;;;4336615;33;20231;-66
2022/05/11 04:01:17;;;;;;;7.87;1.95;;;;;;;;;;4347446;32;20058;-66
2022/05/11 04:03:42;;;;;;;8.45;2.20;;;;;;;;;;4345797;33;20016;-66
2022/05/11 04:06:07;;;;;;;6.28;2.00;;;;;;;;;;4346596;33;20046;-66
2022/05/11 04:08:33;;;;;;;;;;;;;;;;;;4346534;33;20103;-66
2022/05/11 04:10:58;;;;;;;6.82;1.55;;;;;;;;;;4336809;33;19950;-67
2022/05/11 04:13:23;;;;;;;;;;;;;;;;;;4331792;33;20178;-67
2022/05/11 04:15:50;;;;;;;8.13;1.83;;;;;;;;;;4333619;33;19970;-66
2022/05/11 04:18:15;;;;;;;7.25;3.05;;;;;;;;;;4334116;33;20024;-66
2022/05/11 04:20:41;;;;;;;6.47;2.30;;;;;;;;;;4343599;33;20043;-67
2022/05/11 04:23:06;;;;;;;8.85;2.95;;;;;;;;;;4347889;33;20449;-67
2022/05/11 04:25:32;;;;;;;9.30;3.03;;;;;;;;;;4357316;33;20028;-68
2022/05/11 04:27:57;;;;;;;7.75;1.80;;;;;;;;;;4346520;33;20399;-67
2022/05/11 04:30:26;;;;;;;7.65;1.80;;;;;;;;;;4347971;33;20036;-67
2022/05/11 04:32:51;;;;;;;9.23;2.28;;;;;;;;;;4332775;33;20033;-67
2022/05/11 04:35:16;;;;;;;5.65;1.92;;;;;;;;;;4341737;33;20065;-67
2022/05/11 04:37:41;;;;;;;8.05;1.92;;;;;;;;;;4347032;33;20074;-67
2022/05/11 04:40:08;;;;;;;6.78;2.20;;;;;;;;;;4345031;33;20024;-66
2022/05/11 04:42:33;;;;;;;9.02;2.12;;;;;;;;;;4347102;32;20492;-67
2022/05/11 04:44:58;;;;;;;7.87;2.00;;;;;;;;;;4345421;33;20028;-66
2022/05/11 04:47:24;;;;;;;3.80;1.75;;;;;;;;;;4346204;33;20208;-67
2022/05/11 04:49:51;;;;;;;6.95;1.95;;;;;;;;;;4333215;32;20114;-66
2022/05/11 04:52:17;;;;;;;10.35;2.08;;;;;;;;;;4341987;33;20019;-66
2022/05/11 04:54:49;;;;;;;10.93;2.08;;;;;;;;;;4332458;33;20024;-67
2022/05/11 04:57:14;;;;;;;5.60;2.42;;;;;;;;;;4332097;33;20122;-67
2022/05/11 04:59:40;;;;;;;6.22;2.33;;;;;;;;;;4331358;33;20052;-67
2022/05/11 05:02:06;;;;;;;4.95;1.50;;;;;;;;;;4336405;33;20537;-67
2022/05/11 05:04:31;;;;;;;9.73;1.92;;;;;;;;;;4341026;33;20418;-67
2022/05/11 05:06:57;;;;;;;7.65;2.08;;;;;;;;;;4338465;33;20024;-67
2022/05/11 05:09:22;;;;;;;;;;;;;;;;;;4345460;33;20114;-67
2022/05/11 05:11:48;;;;;;;7.25;2.00;;;;;;;;;;4345296;33;20034;-66
2022/05/11 05:14:13;;;;;;;7.40;1.60;;;;;;;;;;4349347;32;20120;-66
2022/05/11 05:16:39;;;;;;;5.47;1.70;;;;;;;;;;4337499;33;20331;-66
2022/05/11 05:19:05;;;;;;;8.23;2.15;;;;;;;;;;4338307;33;20171;-67
2022/05/11 05:21:31;;;;;;;7.95;1.92;;;;;;;;;;4346188;32;20066;-66
2022/05/11 05:23:56;;;;;;;11.50;2.70;;;;;;;;;;4363273;32;20103;-66
2022/05/11 05:26:21;;;;;;;10.30;2.40;;;;;;;;;;4341180;32;20390;-66
2022/05/11 05:31:31;;;;;;;6.60;2.10;;;;;;;;;;4344969;33;20213;-66
2022/05/11 05:34:00;;;;;;;6.68;1.80;;;;;;;;;;4347678;32;20048;-67
2022/05/11 05:36:26;;;;;;;9.13;2.10;;;;;;;;;;4337802;33;20429;-67
2022/05/11 05:38:51;;;;;;;9.80;2.08;;;;;;;;;;4342456;33;20041;-67
2022/05/11 05:41:16;;;;;;;13.68;2.00;;;;;;;;;;4347235;33;20023;-67
2022/05/11 05:43:41;;;;;;;6.70;1.73;;;;;;;;;;4340977;32;20081;-68
2022/05/11 05:46:06;;;;;;;14.63;2.20;;;;;;;;;;4339658;33;20036;-66
2022/05/11 05:48:32;;;;;;;7.78;1.85;;;;;;;;;;4344367;33;20120;-66
2022/05/11 05:51:04;;;;;;;7.25;2.20;;;;;;;;;;4345015;32;20103;-66
2022/05/11 05:53:29;;;;;;;8.20;2.35;;;;;;;;;;4353992;33;20051;-66
2022/05/11 05:55:55;;;;;;;8.73;2.30;;;;;;;;;;4344349;33;20067;-65
2022/05/11 05:58:20;;;;;;;7.37;2.10;;;;;;;;;;4353608;32;20469;-67
2022/05/11 06:00:45;;;;;;;6.75;2.08;;;;;;;;;;4338693;33;20054;-66
2022/05/11 06:03:13;;;;;;;7.15;1.60;;;;;;;;;;4340801;33;20132;-67
2022/05/11 06:05:38;;;;;;;8.40;2.17;;;;;;;;;;4339424;33;20825;-67
2022/05/11 06:08:03;;;;;;;5.53;2.17;;;;;;;;;;4345450;33;20032;-67
2022/05/11 06:10:28;;;;;;;9.30;3.78;;;;;;;;;;4344093;33;20120;-68
2022/05/11 06:12:53;;;;;;;7.07;2.20;;;;;;;;;;4342059;33;20056;-67
2022/05/11 06:15:19;;;;;;;9.70;2.25;;;;;;;;;;4344260;33;20170;-66
2022/05/11 06:17:44;;;;;;;6.20;2.22;;;;;;;;;;4357246;32;20060;-67
2022/05/11 06:20:09;;;;;;;8.30;1.92;;;;;;;;;;4356686;32;20088;-65
2022/05/11 06:22:35;;;;;;;11.90;2.67;;;;;;;;;;4346697;32;20033;-67
2022/05/11 06:25:00;;;;;;;8.65;3.03;;;;;;;;;;4340645;32;20050;-67
2022/05/11 06:27:26;;;;;;;11.43;2.72;;;;;;;;;;4354346;32;20023;-67
2022/05/11 06:29:52;;;;;;;6.50;2.30;;;;;;;;;;4349252;32;20101;-67
2022/05/11 06:32:22;;;;;;;8.57;2.08;;;;;;;;;;4344488;33;20378;-67
2022/05/11 06:34:48;;;;;;;36.22;5.30;;;;;;;;;;4341451;33;20092;-67
2022/05/11 06:37:13;;;;;;;8.98;2.78;;;;;;;;;;4347541;32;20024;-67
2022/05/11 06:39:38;;;;;;;4.30;1.77;;;;;;;;;;4339865;33;20048;-67
2022/05/11 06:42:07;;;;;;;8.27;2.03;;;;;;;;;;4340945;33;20508;-67
2022/05/11 06:44:33;;;;;;;18.02;2.08;;;;;;;;;;4336241;33;20027;-68
2022/05/11 06:46:58;;;;;;;7.12;1.62;;;;;;;;;;4344827;32;20476;-66
2022/05/11 06:49:23;;;;;;;6.35;1.58;;;;;;;;;;4344727;32;20066;-68
2022/05/11 06:51:48;;;;;;;9.10;2.30;;;;;;;;;;4352823;32;20106;-66
2022/05/11 06:59:41;;;;;;;7.05;1.90;;;;;;;;;;4347069;33;20093;-67
2022/05/11 07:02:06;;;;;;;6.03;1.77;;;;;;;;;;4342149;32;20035;-67
2022/05/11 07:04:33;;;;;;;14.43;2.45;;;;;;;;;;4351578;32;20040;-67
2022/05/11 07:06:59;;;;;;;7.97;2.47;;;;;;;;;;4345578;32;20043;-66
2022/05/11 07:09:25;;;;;;;7.00;1.90;;;;;;;;;;4339300;32;20028;-67
2022/05/11 07:14:35;;;;;;;10.70;2.08;;;;;;;;;;4341556;33;20113;-67
2022/05/11 07:17:00;;;;;;;8.70;1.95;;;;;;;;;;4358711;32;20031;-67
2022/05/11 07:19:25;;;;;;;7.80;1.80;;;;;;;;;;4346229;32;20370;-67
2022/05/11 07:21:51;;;;;;;5.68;1.73;;;;;;;;;;4357884;32;20085;-68
2022/05/11 07:24:17;;;;;;;9.65;1.73;;;;;;;;;;4345558;32;20326;-67
2022/05/11 07:26:42;;;;;;;8.55;2.15;;;;;;;;;;4331316;33;20086;-67
2022/05/11 07:29:08;;;;;;;5.25;2.00;;;;;;;;;;4333390;33;20039;-67
2022/05/11 07:31:33;;;;;;;6.05;2.15;;;;;;;;;;4342796;33;20040;-67
2022/05/11 07:33:58;;;;;;;6.03;1.48;;;;;;;;;;4342946;32;20024;-67
2022/05/11 07:36:24;;;;;;;8.45;2.00;;;;;;;;;;4336679;32;20206;-68
2022/05/11 07:38:50;;;;;;;7.15;1.70;;;;;;;;;;4331674;33;20145;-69
2022/05/11 07:41:15;;;;;;;6.78;1.67;;;;;;;;;;4350995;33;20023;-67
2022/05/11 07:43:40;;;;;;;6.27;2.07;;;;;;;;;;4346577;32;20051;-66
2022/05/11 07:46:05;;;;;;;7.43;2.30;;;;;;;;;;4342978;32;20209;-66
2022/05/11 07:48:30;;;;;;;5.22;1.60;;;;;;;;;;4343360;32;20090;-66
2022/05/11 07:50:55;;;;;;;7.78;2.10;;;;;;;;;;4345303;33;20024;-66
2022/05/11 07:53:21;;;;;;;8.27;2.28;;;;;;;;;;4338574;32;20049;-66
2022/05/11 07:55:46;;;;;;;8.68;2.00;;;;;;;;;;4357710;32;20054;-66
2022/05/11 08:00:56;;;;;;;10.55;2.28;;;;;;;;;;4347325;33;20058;-66
2022/05/11 08:03:21;;;;;;;7.70;2.15;;;;;;;;;;4342366;33;20322;-67
2022/05/11 08:05:46;;;;;;;13.18;3.00;;;;;;;;;;4347976;32;20028;-67
2022/05/11 08:08:11;;;;;;;7.03;1.92;;;;;;;;;;4335205;33;20024;-67
2022/05/11 08:10:40;;;;;;;5.62;1.67;;;;;;;;;;4330384;33;20300;-67
2022/05/11 08:13:07;;;;;;;6.43;1.85;;;;;;;;;;4339876;32;20097;-67
2022/05/11 08:15:33;;;;;;;4.03;1.60;;;;;;;;;;4329690;33;20036;-67
2022/05/11 08:17:59;;;;;;;7.70;1.50;;;;;;;;;;4337868;33;20174;-67
2022/05/11 08:20:30;;;;;;;7.90;1.95;;;;;;;;;;4337349;32;20062;-67
2022/05/11 08:22:55;;;;;;;9.40;1.75;;;;;;;;;;4331850;33;20060;-67
2022/05/11 08:25:22;;;;;;;7.78;1.77;;;;;;;;;;4337691;33;20090;-67
2022/05/11 08:27:48;;;;;;;9.40;2.12;;;;;;;;;;4345932;32;20053;-68
2022/05/11 08:35:43;;;;;;;8.77;2.03;;;;;;;;;;4360784;32;20455;-67
2022/05/11 08:38:08;;;;;;;7.20;1.80;;;;;;;;;;4356498;32;20056;-68
2022/05/11 08:40:39;;;;;;;15.23;2.60;;;;;;;;;;4330463;33;20050;-68
2022/05/11 08:43:05;;;;;;;11.63;2.47;;;;;;;;;;4330598;33;20472;-68
2022/05/11 08:45:36;;;;;;;10.65;2.17;;;;;;;;;;4330175;33;20367;-68
2022/05/11 08:48:06;;;;;;;12.48;3.00;;;;;;;;;;4342782;33;20453;-67
2022/05/11 08:50:33;;;;;;;13.40;2.65;;;;;;;;;;4330496;33;20020;-67
2022/05/11 08:53:04;;;;;;;7.20;2.58;;;;;;;;;;4329940;33;20056;-68
2022/05/11 08:55:45;;;;;;;9.30;2.62;;;;;;;;;;4344801;32;20403;-67
2022/05/11 08:58:12;;;;;;;15.30;4.28;;;;;;;;;;4336457;33;20457;-67
2022/05/11 09:00:39;;;;;;;13.20;3.00;;;;;;;;;;4351634;32;20070;-67
2022/05/11 09:03:27;;;;;;;11.70;3.45;;;;;;;;;;4331066;33;20032;-67
2022/05/11 09:05:52;;;;;;;12.43;2.97;;;;;;;;;;4334721;33;20024;-67
2022/05/11 09:08:17;;;;;;;11.05;2.80;;;;;;;;;;4344014;33;20078;-68
2022/05/11 09:10:44;;;;;;;19.23;3.35;;;;;;;;;;4342757;32;20393;-67
2022/05/11 09:13:11;;;;;;;15.70;3.50;;;;;;;;;;4344498;33;20024;-66
2022/05/11 09:15:56;;;;;;;8.93;2.35;;;;;;;;;;4333863;33;20047;-67
2022/05/11 09:18:30;;;;;;;14.60;3.55;;;;;;;;;;4338034;33;20385;-66
2022/05/11 09:20:56;;;;;;;17.08;3.97;;;;;;;;;;4344437;32;20045;-66
2022/05/11 09:23:27;;;;;;;9.82;3.33;;;;;;;;;;4344306;33;20024;-67
2022/05/11 09:25:59;;;;;;;11.23;2.90;;;;;;;;;;4343391;32;20146;-66
2022/05/11 09:28:27;;;;;;;12.80;3.12;;;;;;;;;;4343962;33;20089;-68
2022/05/11 09:31:00;;;;;;;13.38;3.53;;;;;;;;;;4329714;33;20106;-67
2022/05/11 09:33:27;;;;;;;10.50;2.65;;;;;;;;;;4340581;33;20052;-66
2022/05/11 09:35:52;;;;;;;11.90;2.80;;;;;;;;;;4331096;33;20082;-66
2022/05/11 09:38:17;;;;;;;13.75;3.67;;;;;;;;;;4329846;33;20422;-66
2022/05/11 09:40:53;;;;;;;14.00;3.42;;;;;;;;;;4331223;33;20066;-67
2022/05/11 09:43:29;;;;;;;9.60;2.28;;;;;;;;;;4332950;33;20123;-67
2022/05/11 09:45:54;;;;;;;;;;;;;;;;;;4330824;33;20125;-66
2022/05/11 09:48:30;;;;;;;15.57;2.83;;;;;;;;;;4334191;33;19958;-67
2022/05/11 09:50:56;;;;;;;15.57;2.85;;;;;;;;;;4345119;33;20054;-67
2022/05/11 09:53:32;;;;;;;8.60;2.25;;;;;;;;;;4347533;32;20046;-67
2022/05/11 09:56:15;;;;;;;12.82;2.90;;;;;;;;;;4343941;33;20039;-67
2022/05/11 09:58:40;;;;;;;17.87;3.37;;;;;;;;;;4346498;32;20050;-68
2022/05/11 10:01:07;;;;;;;15.23;2.70;;;;;;;;;;4341217;32;20035;-67
2022/05/11 10:03:32;;;;;;;16.52;3.37;;;;;;;;;;4353377;32;20027;-66
2022/05/11 10:05:58;;;;;;;12.75;2.42;;;;;;;;;;4362486;32;20065;-66
2022/05/11 10:08:27;;;;;;;13.73;2.83;;;;;;;;;;4348709;32;20031;-67
2022/05/11 10:10:54;;;;;;;13.45;2.90;;;;;;;;;;4343043;32;20024;-67
2022/05/11 10:13:20;;;;;;;13.55;2.80;;;;;;;;;;4331122;33;20455;-67
2022/05/11 10:21:56;;;;;;;11.85;2.53;;;;;;;;;;4345909;33;20130;-67
2022/05/11 10:24:22;;;;;;;7.00;2.80;;;;;;;;;;4345751;32;20012;-67
2022/05/11 10:27:13;;;;;;;14.70;2.80;;;;;;;;;;4346264;32;20095;-66
2022/05/11 10:29:47;;;;;;;11.77;2.45;;;;;;;;;;4345383;33;20065;-66
2022/05/11 10:32:20;;;;;;;12.70;2.25;;;;;;;;;;4352098;32;20023;-66
2022/05/11 10:34:54;;;;;;;10.75;2.45;;;;;;;;;;4343221;33;20105;-66
2022/05/11 10:37:46;;;;;;;11.52;2.08;;;;;;;;;;4337841;32;20032;-67
2022/05/11 10:40:30;;;;;;;7.03;2.03;;;;;;;;;;4320162;33;20055;-67
2022/05/11 10:42:55;;;;;;;9.20;1.92;;;;;;;;;;4335693;33;20066;-67
2022/05/11 10:45:23;;;;;;;11.02;2.87;;;;;;;;;;4333531;33;20108;-66
2022/05/11 10:48:08;;;;;;;9.13;1.95;;;;;;;;;;4338714;33;20036;-66
2022/05/11 10:50:52;;;;;;;7.03;2.25;;;;;;;;;;4347442;32;20024;-67
2022/05/11 10:53:30;;;;;;;9.70;2.08;;;;;;;;;;4335407;32;20057;-67
2022/05/11 10:55:58;;;;;;;10.23;2.37;;;;;;;;;;4344473;32;20083;-66
2022/05/11 10:58:31;;;;;;;12.55;2.50;;;;;;;;;;4345367;33;20059;-66
2022/05/11 11:01:04;;;;;;;9.57;2.83;;;;;;;;;;4343140;32;20427;-65
2022/05/11 11:03:32;;;;;;;11.75;2.37;;;;;;;;;;4334149;33;20054;-66
2022/05/11 11:09:14;;;;;;;7.45;2.10;;;;;;;;;;4343034;33;20077;-66
2022/05/11 11:11:48;;;;;;;13.57;2.47;;;;;;;;;;4346726;32;20155;-67
2022/05/11 11:14:15;;;;;;;9.35;2.20;;;;;;;;;;4346909;32;20402;-66
2022/05/11 11:16:41;;;;;;;6.43;1.52;;;;;;;;;;4357781;32;20146;-67
2022/05/11 11:19:09;;;;;;;8.65;1.92;;;;;;;;;;4338319;32;20028;-67
2022/05/11 11:21:37;;;;;;;6.75;1.98;;;;;;;;;;4346718;32;20048;-66
2022/05/11 11:24:22;;;;;;;3.90;1.67;;;;;;;;;;4347095;32;20031;-66
2022/05/11 11:26:49;;;;;;;9.63;1.83;;;;;;;;;;4337426;32;20028;-67
2022/05/11 11:29:18;;;;;;;5.78;1.90;;;;;;;;;;4333325;33;20032;-66
2022/05/11 11:32:13;;;;;;;5.40;1.85;;;;;;;;;;4332757;33;20029;-66
2022/05/11 11:34:38;;;;;;;8.77;1.87;;;;;;;;;;4325699;33;20032;-66
2022/05/11 11:37:22;;;;;;;7.75;2.30;;;;;;;;;;4336459;33;20035;-66
2022/05/11 11:39:48;;;;;;;6.43;2.05;;;;;;;;;;4345439;33;20062;-66
2022/05/11 11:42:26;;;;;;;5.62;1.83;;;;;;;;;;4344648;33;20036;-67
2022/05/11 11:44:51;;;;;;;7.18;1.75;;;;;;;;;;4346756;32;20150;-67
2022/05/11 11:47:30;;;;;;;6.90;2.00;;;;;;;;;;4343192;32;20036;-67
2022/05/11 11:49:56;;;;;;;8.25;1.62;;;;;;;;;;4332486;33;20130;-67
2022/05/11 11:52:36;;;;;;;6.18;1.83;;;;;;;;;;4332849;33;20134;-66
2022/05/11 11:55:02;;;;;;;8.13;2.03;;;;;;;;;;4331865;33;20047;-66
2022/05/11 11:57:29;;;;;;;8.45;1.67;;;;;;;;;;4332957;33;20457;-67
2022/05/11 12:00:14;;;;;;;6.75;2.40;;;;;;;;;;4331420;33;20070;-67
2022/05/11 12:02:41;;;;;;;6.00;1.85;;;;;;;;;;4331617;33;20083;-67
2022/05/11 12:05:11;;;;;;;8.27;2.03;;;;;;;;;;4340514;33;20043;-67
2022/05/11 12:16:01;;;;;;;8.48;2.10;;;;;;;;;;4331025;33;20082;-67
2022/05/11 12:18:28;;;;;;;13.27;3.20;;;;;;;;;;4332346;33;20067;-68
2022/05/11 12:20:55;;;;;;;6.53;2.50;;;;;;;;;;4330448;33;20036;-67
2022/05/11 12:23:22;;;;;;;8.15;2.85;;;;;;;;;;4343038;33;20032;-66
2022/05/11 12:25:56;;;;;;;11.93;3.00;;;;;;;;;;4329954;33;20074;-68
2022/05/11 12:28:23;;;;;;;10.43;2.67;;;;;;;;;;4332893;33;20024;-67
2022/05/11 12:30:49;;;;;;;13.52;3.40;;;;;;;;;;4332162;33;20027;-66
2022/05/11 12:33:23;;;;;;;10.10;3.15;;;;;;;;;;4331614;33;20524;-67
2022/05/11 12:35:49;;;;;;;10.27;3.40;;;;;;;;;;4330339;33;20447;-67
2022/05/11 12:38:24;;;;;;;12.10;3.37;;;;;;;;;;4330808;33;20102;-67
2022/05/11 12:40:53;;;;;;;7.60;3.03;;;;;;;;;;4332140;33;20044;-68
2022/05/11 12:43:18;;;;;;;13.93;3.75;;;;;;;;;;4331928;33;20074;-67
2022/05/11 12:45:46;;;;;;;8.43;3.28;;;;;;;;;;4331896;33;20335;-67
2022/05/11 12:48:37;;;;;;;14.87;3.87;;;;;;;;;;4341560;33;20657;-67
2022/05/11 12:51:14;;;;;;;12.32;3.45;;;;;;;;;;4359258;32;20043;-67
2022/05/11 12:53:47;;;;;;;13.02;4.10;;;;;;;;;;4360770;32;20031;-67
2022/05/11 12:56:15;;;;;;;14.55;4.03;;;;;;;;;;4345312;32;20430;-67
2022/05/11 12:58:45;;;;;;;13.00;3.83;;;;;;;;;;4331586;33;20073;-67
2022/05/11 13:01:12;;;;;;;15.43;3.70;;;;;;;;;;4331906;33;20044;-67
2022/05/11 13:03:37;;;;;;;11.00;3.83;;;;;;;;;;4342867;33;20028;-67
2022/05/11 13:06:05;;;;;;;13.55;4.78;;;;;;;;;;4330160;33;20059;-67
2022/05/11 13:08:35;;;;;;;14.05;4.78;;;;;;;;;;4331525;33;20110;-67
2022/05/11 13:11:01;;;;;;;17.05;4.15;;;;;;;;;;4345454;32;20040;-67
2022/05/11 13:13:29;;;;;;;11.40;4.45;;;;;;;;;;4340059;33;20047;-68
2022/05/11 13:16:01;;;;;;;15.95;3.65;;;;;;;;;;4353222;32;20214;-67
2022/05/11 13:18:28;;;;;;;17.10;5.07;;;;;;;;;;4331439;33;20366;-67
2022/05/11 13:20:55;;;;;;;14.73;3.85;;;;;;;;;;4331472;33;20035;-66
2022/05/11 13:23:23;;;;;;;9.98;3.50;;;;;;;;;;4332006;33;20036;-67
2022/05/11 13:25:50;;;;;;;15.77;4.03;;;;;;;;;;4342879;33;20039;-67
2022/05/11 13:28:32;;;;;;;14.13;4.57;;;;;;;;;;4357534;32;20079;-68
2022/05/11 13:31:02;;;;;;;14.55;4.72;;;;;;;;;;4346111;33;20035;-67
2022/05/11 13:33:33;;;;;;;14.15;3.83;;;;;;;;;;4355538;32;20031;-68
2022/05/11 13:36:10;;;;;;;11.30;4.43;;;;;;;;;;4346255;33;20166;-67
2022/05/11 13:38:36;;;;;;;10.98;3.28;;;;;;;;;;4345520;33;20079;-68
2022/05/11 13:41:02;;;;;;;25.60;5.72;;;;;;;;;;4342286;33;20083;-68
2022/05/11 13:43:28;;;;;;;16.00;5.05;;;;;;;;;;4355777;32;20062;-67
2022/05/11 13:45:53;;;;;;;19.55;5.37;;;;;;;;;;4355825;32;20091;-68
2022/05/11 13:48:23;;;;;;;16.23;4.65;;;;;;;;;;4355726;32;20035;-67
2022/05/11 13:50:51;;;;;;;19.65;5.43;;;;;;;;;;4344774;33;20027;-67
2022/05/11 13:53:16;;;;;;;15.05;4.10;;;;;;;;;;4345883;33;20160;-68
2022/05/11 13:55:43;;;;;;;11.82;4.32;;;;;;;;;;4345996;33;20032;-68
2022/05/11 13:58:27;;;;;;;14.02;3.75;;;;;;;;;;4344256;33;20397;-68
2022/05/11 14:00:53;;;;;;;12.68;4.37;;;;;;;;;;4344355;33;20064;-68
2022/05/11 14:03:19;;;;;;;11.70;3.47;;;;;;;;;;4345279;33;20081;-67
2022/05/11 14:05:45;;;;;;;22.23;5.45;;;;;;;;;;4344035;33;20414;-67
2022/05/11 14:08:12;;;;;;;21.25;4.70;;;;;;;;;;4336481;33;20067;-67
2022/05/11 14:10:37;;;;;;;16.23;3.90;;;;;;;;;;4328622;33;20036;-68
2022/05/11 14:13:02;;;;;;;13.43;4.30;;;;;;;;;;4329652;33;20083;-68
2022/05/11 14:15:27;;;;;;;14.60;4.22;;;;;;;;;;4355882;33;20124;-67
2022/05/11 14:17:52;;;;;;;16.25;4.65;;;;;;;;;;4359949;32;20090;-67
2022/05/11 14:20:20;;;;;;;22.08;4.25;;;;;;;;;;4359368;32;20054;-67
2022/05/11 14:22:45;;;;;;;12.63;3.72;;;;;;;;;;4359125;32;20100;-68
2022/05/11 14:25:11;;;;;;;22.43;4.93;;;;;;;;;;4344539;33;20039;-67
2022/05/11 14:27:37;;;;;;;15.55;4.30;;;;;;;;;;4355347;32;20136;-67
2022/05/11 14:30:03;;;;;;;17.92;4.37;;;;;;;;;;4345172;33;20057;-66
2022/05/11 14:32:33;;;;;;;17.05;3.83;;;;;;;;;;4343165;33;20438;-70
2022/05/11 14:34:59;;;;;;;14.63;4.03;;;;;;;;;;4344633;33;20044;-67
2022/05/11 14:37:24;;;;;;;12.82;3.85;;;;;;;;;;4345869;32;20367;-68
2022/05/11 14:39:50;;;;;;;12.70;4.53;;;;;;;;;;4340406;33;20115;-68
2022/05/11 14:42:16;;;;;;;17.10;4.10;;;;;;;;;;4333341;33;20071;-68
2022/05/11 14:44:41;;;;;;;22.92;4.95;;;;;;;;;;4343608;33;20188;-69
2022/05/11 14:47:06;;;;;;;24.65;4.72;;;;;;;;;;4348277;33;20115;-68
2022/05/11 14:49:32;;;;;;;11.25;3.47;;;;;;;;;;4358599;32;20036;-68
2022/05/11 14:51:57;;;;;;;19.23;4.32;;;;;;;;;;4358742;32;20051;-68
2022/05/11 14:54:22;;;;;;;15.70;3.75;;;;;;;;;;4345281;32;20098;-66
2022/05/11 15:01:55;;;;;;;20.23;4.68;;;;;;;;;;4338912;33;20323;-68
2022/05/11 15:02:17;;;;;;;17.33;4.03;;;;;;;;;;4344736;33;20520;-67
2022/05/11 15:04:43;;;;;;;15.07;4.12;;;;;;;;;;4356452;32;20032;-68
2022/05/11 15:07:10;;;;;;;15.70;3.55;;;;;;;;;;4346599;32;20409;-67
2022/05/11 15:09:35;;;;;;;14.18;3.72;;;;;;;;;;4341363;33;20100;-68
2022/05/11 15:14:45;;;;;;;13.95;3.30;;;;;;;;;;4347248;33;20417;-67
2022/05/11 15:17:13;;;;;;;18.55;3.40;;;;;;;;;;4352907;32;20071;-68
2022/05/11 15:19:38;;;;;;;20.30;4.65;;;;;;;;;;4345715;32;20369;-68
2022/05/11 15:22:04;;;;;;;13.33;3.60;;;;;;;;;;4345720;32;20059;-67
2022/05/11 15:24:29;;;;;;;17.40;4.32;;;;;;;;;;4346544;32;20125;-68
2022/05/11 15:26:54;;;;;;;15.40;3.95;;;;;;;;;;4346331;33;20211;-68
2022/05/11 15:29:20;;;;;;;17.20;4.00;;;;;;;;;;4346543;32;20051;-68